createdAt,value
2018-09-05T00:00:55.874Z,0.00
2018-09-05T00:01:55.968Z,0.00
2018-09-05T00:02:56.069Z,0.00
2018-09-05T00:03:56.160Z,0.00
2018-09-05T00:04:56.257Z,0.00
2018-09-05T00:05:56.347Z,0.00
2018-09-05T00:06:56.439Z,0.00
2018-09-05T00:07:56.534Z,0.00
2018-09-05T00:08:56.631Z,0.00
2018-09-05T00:09:56.727Z,0.00
2018-09-05T00:10:56.827Z,0.00
2018-09-05T00:11:56.933Z,0.00
2018-09-05T00:12:57.028Z,0.00
2018-09-05T00:13:57.124Z,0.00
2018-09-05T00:14:57.220Z,0.00
2018-09-05T00:15:57.315Z,0.00
2018-09-05T00:16:57.412Z,0.00
2018-09-05T00:17:57.506Z,0.00
2018-09-05T00:18:57.608Z,0.00
2018-09-05T00:19:57.701Z,0.00
2018-09-05T00:20:57.797Z,0.00
2018-09-05T00:21:57.890Z,0.00
2018-09-05T00:22:57.986Z,0.00
2018-09-05T00:23:58.083Z,0.00
2018-09-05T00:24:58.178Z,0.00
2018-09-05T00:25:58.275Z,0.00
2018-09-05T00:26:58.367Z,0.00
2018-09-05T00:27:58.463Z,0.00
2018-09-05T00:28:58.557Z,0.00
2018-09-05T00:29:58.655Z,0.00
2018-09-05T00:30:58.751Z,0.00
2018-09-05T00:31:58.864Z,0.00
2018-09-05T00:32:58.962Z,0.00
2018-09-05T00:33:59.059Z,0.00
2018-09-05T00:34:59.155Z,0.00
2018-09-05T00:35:59.252Z,0.00
2018-09-05T00:36:59.348Z,0.00
2018-09-05T00:37:59.444Z,0.00
2018-09-05T00:38:59.540Z,0.00
2018-09-05T00:39:59.634Z,0.00
2018-09-05T00:40:59.732Z,0.00
2018-09-05T00:41:59.824Z,0.00
2018-09-05T00:42:59.925Z,0.00
2018-09-05T00:44:00.017Z,0.00
2018-09-05T00:45:00.113Z,0.00
2018-09-05T00:46:00.207Z,0.00
2018-09-05T00:47:00.303Z,0.00
2018-09-05T00:48:00.399Z,0.00
2018-09-05T00:49:00.494Z,0.00
2018-09-05T00:50:00.589Z,0.00
2018-09-05T00:51:00.687Z,0.00
2018-09-05T00:52:00.806Z,0.00
2018-09-05T00:53:00.903Z,0.00
2018-09-05T00:54:00.997Z,0.00
2018-09-05T00:55:01.098Z,0.00
2018-09-05T00:56:01.188Z,0.00
2018-09-05T00:57:01.285Z,0.00
2018-09-05T00:58:01.381Z,0.00
2018-09-05T00:59:01.477Z,0.00
2018-09-05T01:00:01.571Z,0.00
2018-09-05T01:01:01.664Z,0.00
2018-09-05T01:02:01.761Z,0.00
2018-09-05T01:03:01.857Z,0.00
2018-09-05T01:04:01.952Z,0.00
2018-09-05T01:05:02.049Z,0.00
2018-09-05T01:06:02.145Z,0.00
2018-09-05T01:07:02.238Z,0.00
2018-09-05T01:08:02.334Z,0.00
2018-09-05T01:09:02.428Z,0.00
2018-09-05T01:10:02.529Z,0.00
2018-09-05T01:11:02.618Z,0.00
2018-09-05T01:12:02.718Z,0.00
2018-09-05T01:13:02.813Z,0.00
2018-09-05T01:14:02.908Z,0.00
2018-09-05T01:15:03.007Z,0.00
2018-09-05T01:16:03.099Z,0.00
2018-09-05T01:17:03.199Z,0.00
2018-09-05T01:18:03.291Z,0.00
2018-09-05T01:19:03.383Z,0.00
2018-09-05T01:20:03.472Z,0.00
2018-09-05T01:21:03.565Z,0.00
2018-09-05T01:22:03.661Z,0.00
2018-09-05T01:23:03.755Z,0.00
2018-09-05T01:24:03.850Z,0.00
2018-09-05T01:25:03.960Z,0.00
2018-09-05T01:26:04.053Z,0.00
2018-09-05T01:27:04.150Z,0.00
2018-09-05T01:28:04.245Z,0.00
2018-09-05T01:29:04.341Z,0.00
2018-09-05T01:30:04.439Z,0.00
2018-09-05T01:31:04.535Z,0.00
2018-09-05T01:32:04.631Z,0.00
2018-09-05T01:33:04.727Z,0.00
2018-09-05T01:34:04.822Z,0.00
2018-09-05T01:35:04.918Z,0.00
2018-09-05T01:36:05.066Z,0.00
2018-09-05T01:37:05.164Z,0.00
2018-09-05T01:38:05.256Z,0.00
2018-09-05T01:39:05.355Z,0.00
2018-09-05T01:40:05.458Z,0.00
2018-09-05T01:41:05.580Z,0.00
2018-09-05T01:42:05.677Z,0.00
2018-09-05T01:43:05.775Z,0.00
2018-09-05T01:44:05.869Z,0.00
2018-09-05T01:45:05.966Z,0.00
2018-09-05T01:46:06.046Z,0.00
2018-09-05T01:47:06.140Z,0.00
2018-09-05T01:48:06.239Z,0.00
2018-09-05T01:49:06.334Z,0.00
2018-09-05T01:50:06.433Z,0.00
2018-09-05T01:51:06.528Z,0.00
2018-09-05T01:52:06.625Z,0.00
2018-09-05T01:53:06.720Z,0.00
2018-09-05T01:54:06.816Z,0.00
2018-09-05T01:55:06.911Z,0.00
2018-09-05T01:56:07.005Z,0.00
2018-09-05T01:57:07.099Z,0.00
2018-09-05T01:58:07.200Z,0.00
2018-09-05T01:59:07.324Z,0.00
2018-09-05T02:00:07.415Z,0.00
2018-09-05T02:01:07.510Z,0.00
2018-09-05T02:02:07.618Z,0.00
2018-09-05T02:03:07.713Z,0.00
2018-09-05T02:04:07.813Z,0.00
2018-09-05T02:05:07.908Z,0.00
2018-09-05T02:06:08.003Z,0.00
2018-09-05T02:07:08.097Z,0.00
2018-09-05T02:08:08.196Z,0.00
2018-09-05T02:09:08.292Z,0.00
2018-09-05T02:10:08.391Z,0.00
2018-09-05T02:11:08.487Z,0.00
2018-09-05T02:12:08.582Z,0.00
2018-09-05T02:13:08.674Z,0.00
2018-09-05T02:14:08.764Z,0.00
2018-09-05T02:15:08.857Z,0.00
2018-09-05T02:16:08.953Z,0.00
2018-09-05T02:17:09.051Z,0.00
2018-09-05T02:18:09.147Z,0.00
2018-09-05T02:19:09.260Z,0.00
2018-09-05T02:20:09.350Z,0.00
2018-09-05T02:21:09.446Z,0.00
2018-09-05T02:22:09.547Z,0.00
2018-09-05T02:23:09.644Z,0.00
2018-09-05T02:24:09.736Z,0.00
2018-09-05T02:25:09.832Z,0.00
2018-09-05T02:26:09.929Z,0.00
2018-09-05T02:27:10.034Z,0.00
2018-09-05T02:28:10.128Z,0.00
2018-09-05T02:29:10.223Z,0.00
2018-09-05T02:30:10.319Z,0.00
2018-09-05T02:31:10.417Z,0.00
2018-09-05T02:32:10.510Z,0.00
2018-09-05T02:33:10.617Z,0.00
2018-09-05T02:34:10.712Z,0.00
2018-09-05T02:35:10.806Z,0.00
2018-09-05T02:36:10.906Z,0.00
2018-09-05T02:37:10.999Z,0.00
2018-09-05T02:38:11.104Z,0.00
2018-09-05T02:39:11.190Z,0.00
2018-09-05T02:40:11.281Z,0.00
2018-09-05T02:41:11.380Z,0.00
2018-09-05T02:42:11.472Z,0.00
2018-09-05T02:43:11.568Z,0.00
2018-09-05T02:44:11.663Z,0.00
2018-09-05T02:45:11.757Z,0.00
2018-09-05T02:46:11.859Z,0.00
2018-09-05T02:47:11.956Z,0.00
2018-09-05T02:48:12.052Z,0.00
2018-09-05T02:49:12.149Z,0.00
2018-09-05T02:50:12.249Z,0.00
2018-09-05T02:51:12.343Z,0.00
2018-09-05T02:52:12.444Z,0.00
2018-09-05T02:53:12.535Z,0.00
2018-09-05T02:54:12.627Z,0.00
2018-09-05T02:55:12.727Z,0.00
2018-09-05T02:56:12.821Z,0.00
2018-09-05T02:57:12.962Z,0.00
2018-09-05T02:58:13.012Z,0.00
2018-09-05T02:59:13.124Z,0.00
2018-09-05T03:00:13.218Z,0.00
2018-09-05T03:01:13.315Z,0.00
2018-09-05T03:02:13.410Z,0.00
2018-09-05T03:03:13.506Z,0.00
2018-09-05T03:04:13.604Z,0.00
2018-09-05T03:05:13.694Z,0.00
2018-09-05T03:06:13.775Z,0.00
2018-09-05T03:08:45.846Z,0.00
2018-09-05T03:09:45.943Z,0.00
2018-09-05T03:10:46.038Z,0.00
2018-09-05T03:11:46.133Z,0.00
2018-09-05T03:12:46.238Z,0.00
2018-09-05T03:13:46.328Z,0.00
2018-09-05T03:14:46.422Z,0.00
2018-09-05T03:15:46.516Z,0.00
2018-09-05T03:16:46.612Z,0.00
2018-09-05T03:17:46.708Z,0.00
2018-09-05T03:18:46.805Z,0.00
2018-09-05T03:19:46.901Z,0.00
2018-09-05T03:20:47.001Z,0.00
2018-09-05T03:21:47.091Z,0.00
2018-09-05T03:22:47.186Z,0.00
2018-09-05T03:23:47.281Z,0.00
2018-09-05T03:24:47.384Z,0.00
2018-09-05T03:25:47.477Z,0.00
2018-09-05T03:26:47.579Z,0.00
2018-09-05T03:27:47.675Z,0.00
2018-09-05T03:28:47.766Z,0.00
2018-09-05T03:29:47.877Z,0.00
2018-09-05T03:30:47.984Z,0.00
2018-09-05T03:31:48.071Z,0.00
2018-09-05T03:32:48.272Z,0.00
2018-09-05T03:33:48.260Z,0.00
2018-09-05T03:34:48.355Z,0.00
2018-09-05T03:35:48.453Z,0.00
2018-09-05T03:36:48.546Z,0.00
2018-09-05T03:37:48.640Z,0.00
2018-09-05T03:38:48.734Z,0.00
2018-09-05T03:39:48.848Z,0.00
2018-09-05T03:40:48.928Z,0.00
2018-09-05T03:41:49.023Z,0.00
2018-09-05T03:42:49.120Z,0.00
2018-09-05T03:43:49.211Z,0.00
2018-09-05T03:44:49.307Z,0.00
2018-09-05T03:45:49.404Z,0.00
2018-09-05T03:46:49.500Z,0.00
2018-09-05T03:47:49.595Z,0.00
2018-09-05T03:48:49.692Z,0.00
2018-09-05T03:49:49.839Z,0.00
2018-09-05T03:50:49.883Z,0.00
2018-09-05T03:51:49.977Z,0.00
2018-09-05T03:52:50.068Z,0.00
2018-09-05T03:53:50.166Z,0.00
2018-09-05T03:54:50.258Z,0.00
2018-09-05T03:55:50.355Z,0.00
2018-09-05T03:56:50.446Z,0.00
2018-09-05T03:57:50.539Z,0.00
2018-09-05T03:58:50.633Z,0.00
2018-09-05T03:59:50.728Z,0.00
2018-09-05T04:00:50.826Z,0.00
2018-09-05T04:01:50.919Z,0.00
2018-09-05T04:02:51.037Z,0.00
2018-09-05T04:03:51.132Z,4.00
2018-09-05T04:04:51.227Z,4.00
2018-09-05T04:05:51.322Z,4.00
2018-09-05T04:06:51.416Z,4.00
2018-09-05T04:07:51.513Z,4.00
2018-09-05T04:08:51.607Z,0.00
2018-09-05T04:09:51.703Z,4.00
2018-09-05T04:10:51.796Z,4.00
2018-09-05T04:11:51.897Z,4.00
2018-09-05T04:12:51.987Z,4.00
2018-09-05T04:13:52.084Z,8.00
2018-09-05T04:14:52.178Z,4.00
2018-09-05T04:15:52.275Z,8.00
2018-09-05T04:16:52.372Z,8.00
2018-09-05T04:17:52.465Z,8.00
2018-09-05T04:18:52.561Z,8.00
2018-09-05T04:19:52.657Z,12.00
2018-09-05T04:20:52.749Z,16.00
2018-09-05T04:21:52.886Z,16.00
2018-09-05T04:22:52.961Z,16.00
2018-09-05T04:23:53.032Z,20.00
2018-09-05T04:24:53.130Z,20.00
2018-09-05T04:25:53.232Z,24.00
2018-09-05T04:26:53.318Z,28.00
2018-09-05T04:27:53.411Z,32.00
2018-09-05T04:28:53.510Z,40.00
2018-09-05T04:29:53.665Z,44.00
2018-09-05T04:30:53.696Z,52.00
2018-09-05T04:31:53.790Z,56.00
2018-09-05T04:32:53.885Z,64.00
2018-09-05T04:33:53.983Z,72.00
2018-09-05T04:34:54.079Z,80.00
2018-09-05T04:35:54.175Z,92.00
2018-09-05T04:36:54.268Z,104.00
2018-09-05T04:37:54.363Z,116.00
2018-09-05T04:38:54.458Z,132.00
2018-09-05T04:39:54.552Z,140.00
2018-09-05T04:40:54.645Z,152.00
2018-09-05T04:41:54.742Z,168.00
2018-09-05T04:42:54.846Z,188.00
2018-09-05T04:43:54.946Z,204.00
2018-09-05T04:44:55.039Z,224.00
2018-09-05T04:45:55.136Z,244.00
2018-09-05T04:46:55.229Z,268.00
2018-09-05T04:47:55.326Z,288.00
2018-09-05T04:48:55.422Z,308.00
2018-09-05T04:49:55.516Z,328.00
2018-09-05T04:50:55.612Z,356.00
2018-09-05T04:51:55.708Z,376.00
2018-09-05T04:52:55.805Z,400.00
2018-09-05T04:53:55.898Z,432.00
2018-09-05T04:54:55.995Z,460.00
2018-09-05T04:55:56.087Z,488.00
2018-09-05T04:56:56.183Z,520.00
2018-09-05T04:57:56.275Z,548.00
2018-09-05T04:58:56.374Z,580.00
2018-09-05T04:59:57.107Z,612.00
2018-09-05T05:00:56.568Z,644.00
2018-09-05T05:01:56.663Z,676.00
2018-09-05T05:02:56.757Z,704.00
2018-09-05T05:03:56.851Z,736.00
2018-09-05T05:04:56.951Z,768.00
2018-09-05T05:05:57.094Z,800.00
2018-09-05T05:06:57.139Z,840.00
2018-09-05T05:07:57.240Z,880.00
2018-09-05T05:08:57.339Z,916.00
2018-09-05T05:09:57.438Z,956.00
2018-09-05T05:10:57.535Z,996.00
2018-09-05T05:11:57.629Z,1048.00
2018-09-05T05:12:57.722Z,1076.00
2018-09-05T05:13:57.816Z,1116.00
2018-09-05T05:14:57.910Z,1160.00
2018-09-05T05:15:57.996Z,1196.00
2018-09-05T05:16:58.098Z,1248.00
2018-09-05T05:17:58.195Z,1276.00
2018-09-05T05:18:58.287Z,1324.00
2018-09-05T05:19:58.386Z,1360.00
2018-09-05T05:20:58.477Z,1404.00
2018-09-05T05:21:58.573Z,1452.00
2018-09-05T05:22:58.670Z,1504.00
2018-09-05T05:23:58.762Z,1552.00
2018-09-05T05:24:58.858Z,1608.00
2018-09-05T05:25:58.952Z,1660.00
2018-09-05T05:26:59.053Z,1716.00
2018-09-05T05:27:59.142Z,1768.00
2018-09-05T05:28:59.259Z,1820.00
2018-09-05T05:29:59.331Z,1872.00
2018-09-05T05:30:59.426Z,1920.00
2018-09-05T05:31:59.544Z,1964.00
2018-09-05T05:32:59.702Z,2004.00
2018-09-05T05:33:59.731Z,2040.00
2018-09-05T05:34:59.820Z,2064.00
2018-09-05T05:35:59.912Z,2092.00
2018-09-05T05:37:00.012Z,2128.00
2018-09-05T05:38:00.105Z,2148.00
2018-09-05T05:39:00.204Z,2176.00
2018-09-05T05:40:00.322Z,2200.00
2018-09-05T05:41:00.403Z,2236.00
2018-09-05T05:42:00.510Z,2272.00
2018-09-05T05:43:00.647Z,2320.00
2018-09-05T05:44:00.741Z,2320.00
2018-09-05T05:45:00.836Z,2332.00
2018-09-05T05:46:00.935Z,2348.00
2018-09-05T05:47:01.030Z,2360.00
2018-09-05T05:48:01.125Z,2388.00
2018-09-05T05:49:01.285Z,2428.00
2018-09-05T05:50:01.313Z,2476.00
2018-09-05T05:51:01.407Z,2528.00
2018-09-05T05:52:01.499Z,2576.00
2018-09-05T05:53:01.597Z,2632.00
2018-09-05T05:54:01.692Z,2696.00
2018-09-05T05:55:01.814Z,2884.00
2018-09-05T05:56:01.875Z,2824.00
2018-09-05T05:57:01.981Z,2872.00
2018-09-05T05:58:02.077Z,2924.00
2018-09-05T05:59:02.175Z,2968.00
2018-09-05T06:00:02.270Z,3012.00
2018-09-05T06:01:02.477Z,3024.00
2018-09-05T06:02:02.459Z,3012.00
2018-09-05T06:03:02.558Z,2928.00
2018-09-05T06:04:02.655Z,2820.00
2018-09-05T06:05:02.748Z,2744.00
2018-09-05T06:06:02.861Z,2776.00
2018-09-05T06:07:02.940Z,2900.00
2018-09-05T06:08:03.036Z,3084.00
2018-09-05T06:09:03.152Z,3312.00
2018-09-05T06:10:03.250Z,3440.00
2018-09-05T06:11:03.346Z,3568.00
2018-09-05T06:12:03.466Z,3680.00
2018-09-05T06:13:03.539Z,4512.00
2018-09-05T06:14:03.635Z,6260.00
2018-09-05T06:15:03.732Z,6740.00
2018-09-05T06:16:03.852Z,6724.00
2018-09-05T06:17:03.926Z,6028.00
2018-09-05T06:18:04.102Z,5300.00
2018-09-05T06:19:04.117Z,4884.00
2018-09-05T06:20:04.210Z,6644.00
2018-09-05T06:21:04.314Z,6292.00
2018-09-05T06:22:04.404Z,5368.00
2018-09-05T06:23:04.497Z,4768.00
2018-09-05T06:24:04.679Z,3800.00
2018-09-05T06:25:04.687Z,3536.00
2018-09-05T06:26:04.783Z,3468.00
2018-09-05T06:27:04.882Z,3416.00
2018-09-05T06:28:04.979Z,3388.00
2018-09-05T06:29:05.088Z,3380.00
2018-09-05T06:30:05.183Z,3432.00
2018-09-05T06:31:05.443Z,3500.00
2018-09-05T06:32:05.388Z,3508.00
2018-09-05T06:33:05.472Z,3616.00
2018-09-05T06:34:05.618Z,3656.00
2018-09-05T06:35:05.669Z,3684.00
2018-09-05T06:36:05.772Z,3712.00
2018-09-05T06:37:05.857Z,3756.00
2018-09-05T06:38:05.954Z,3824.00
2018-09-05T06:39:06.072Z,3860.00
2018-09-05T06:40:06.161Z,3968.00
2018-09-05T06:41:06.243Z,4008.00
2018-09-05T06:42:06.340Z,4084.00
2018-09-05T06:43:06.435Z,4312.00
2018-09-05T06:44:06.528Z,4316.00
2018-09-05T06:45:06.725Z,4844.00
2018-09-05T06:46:06.725Z,4636.00
2018-09-05T06:47:06.826Z,5228.00
2018-09-05T06:48:06.922Z,7652.00
2018-09-05T06:49:07.028Z,7088.00
2018-09-05T06:50:07.124Z,5588.00
2018-09-05T06:51:07.222Z,7508.00
2018-09-05T06:52:07.320Z,4828.00
2018-09-05T06:53:07.418Z,5272.00
2018-09-05T06:54:07.516Z,6984.00
2018-09-05T06:55:07.612Z,6488.00
2018-09-05T06:56:07.732Z,5672.00
2018-09-05T06:57:07.829Z,6100.00
2018-09-05T06:58:07.936Z,6768.00
2018-09-05T06:59:08.028Z,6720.00
2018-09-05T07:00:08.128Z,6920.00
2018-09-05T07:01:08.225Z,6768.00
2018-09-05T07:02:08.321Z,6604.00
2018-09-05T07:03:08.423Z,5732.00
2018-09-05T07:04:08.523Z,5836.00
2018-09-05T07:05:08.617Z,7096.00
2018-09-05T07:06:08.713Z,6832.00
2018-09-05T07:07:08.812Z,6620.00
2018-09-05T07:08:08.909Z,6672.00
2018-09-05T07:09:09.006Z,6652.00
2018-09-05T07:10:09.123Z,6332.00
2018-09-05T07:11:09.206Z,6176.00
2018-09-05T07:12:09.306Z,6152.00
2018-09-05T07:13:09.404Z,6164.00
2018-09-05T07:14:09.510Z,6260.00
2018-09-05T07:15:09.598Z,5984.00
2018-09-05T07:16:09.698Z,5968.00
2018-09-05T07:17:09.794Z,5876.00
2018-09-05T07:18:09.894Z,5744.00
2018-09-05T07:19:09.992Z,5972.00
2018-09-05T07:20:10.090Z,5380.00
2018-09-05T07:21:10.203Z,6296.00
2018-09-05T07:22:10.287Z,6492.00
2018-09-05T07:23:10.388Z,6500.00
2018-09-05T07:24:10.486Z,6496.00
2018-09-05T07:25:10.585Z,6408.00
2018-09-05T07:26:10.683Z,6452.00
2018-09-05T07:27:10.788Z,6504.00
2018-09-05T07:28:10.881Z,6520.00
2018-09-05T07:29:10.980Z,6520.00
2018-09-05T07:30:11.091Z,6584.00
2018-09-05T07:31:11.189Z,6608.00
2018-09-05T07:32:11.289Z,6464.00
2018-09-05T07:33:11.391Z,6408.00
2018-09-05T07:34:11.492Z,6124.00
2018-09-05T07:35:11.593Z,6072.00
2018-09-05T07:36:11.693Z,5696.00
2018-09-05T07:37:11.788Z,5216.00
2018-09-05T07:38:11.893Z,5100.00
2018-09-05T07:39:11.990Z,5020.00
2018-09-05T07:40:12.085Z,4980.00
2018-09-05T07:41:12.186Z,5080.00
2018-09-05T07:42:12.287Z,5024.00
2018-09-05T07:43:12.381Z,5084.00
2018-09-05T07:44:12.480Z,5452.00
2018-09-05T07:45:12.582Z,5044.00
2018-09-05T07:46:12.682Z,5184.00
2018-09-05T07:47:12.781Z,5724.00
2018-09-05T07:48:12.882Z,5340.00
2018-09-05T07:49:12.979Z,5328.00
2018-09-05T07:50:13.080Z,5312.00
2018-09-05T07:51:13.167Z,4672.00
2018-09-05T07:52:13.280Z,4784.00
2018-09-05T07:53:13.382Z,5224.00
2018-09-05T07:54:13.514Z,5268.00
2018-09-05T07:55:13.581Z,5016.00
2018-09-05T07:56:13.678Z,5152.00
2018-09-05T07:57:13.828Z,5052.00
2018-09-05T07:58:13.879Z,4940.00
2018-09-05T07:59:13.975Z,4872.00
2018-09-05T08:00:14.072Z,5084.00
2018-09-05T08:01:14.174Z,4880.00
2018-09-05T08:02:14.274Z,4776.00
2018-09-05T08:03:14.374Z,4916.00
2018-09-05T08:04:14.470Z,4620.00
2018-09-05T08:05:14.571Z,4380.00
2018-09-05T08:06:14.670Z,4756.00
2018-09-05T08:07:14.771Z,5048.00
2018-09-05T08:08:14.870Z,5044.00
2018-09-05T08:09:14.980Z,5032.00
2018-09-05T08:10:15.071Z,5072.00
2018-09-05T08:11:15.171Z,5084.00
2018-09-05T08:12:15.268Z,5068.00
2018-09-05T08:13:15.367Z,5044.00
2018-09-05T08:14:15.466Z,4968.00
2018-09-05T08:15:15.568Z,4928.00
2018-09-05T08:16:15.665Z,4980.00
2018-09-05T08:17:15.766Z,5056.00
2018-09-05T08:18:15.868Z,5076.00
2018-09-05T08:19:15.962Z,5100.00
2018-09-05T08:20:16.063Z,5128.00
2018-09-05T08:21:16.164Z,5164.00
2018-09-05T08:22:16.261Z,5172.00
2018-09-05T08:23:16.360Z,5148.00
2018-09-05T08:24:16.512Z,5168.00
2018-09-05T08:25:16.559Z,5176.00
2018-09-05T08:26:16.661Z,5176.00
2018-09-05T08:27:16.761Z,5124.00
2018-09-05T08:28:16.861Z,5156.00
2018-09-05T08:29:16.998Z,5136.00
2018-09-05T08:30:17.061Z,5120.00
2018-09-05T08:31:17.162Z,5108.00
2018-09-05T08:32:17.259Z,5080.00
2018-09-05T08:33:17.358Z,5128.00
2018-09-05T08:34:17.457Z,5120.00
2018-09-05T08:35:17.776Z,5116.00
2018-09-05T08:36:17.993Z,5104.00
2018-09-05T08:37:17.930Z,5124.00
2018-09-05T08:38:17.939Z,5248.00
2018-09-05T08:39:17.950Z,5164.00
2018-09-05T08:40:18.062Z,5168.00
2018-09-05T08:41:18.228Z,5172.00
2018-09-05T08:42:18.344Z,5180.00
2018-09-05T08:43:18.360Z,5172.00
2018-09-05T08:44:18.587Z,5160.00
2018-09-05T08:45:18.792Z,5160.00
2018-09-05T08:46:18.728Z,5168.00
2018-09-05T08:47:18.761Z,5144.00
2018-09-05T08:48:18.932Z,5188.00
2018-09-05T08:49:18.951Z,5196.00
2018-09-05T08:50:19.068Z,5104.00
2018-09-05T08:51:19.154Z,5296.00
2018-09-05T08:52:19.272Z,5464.00
2018-09-05T08:53:19.379Z,5264.00
2018-09-05T08:54:19.451Z,5216.00
2018-09-05T08:55:19.625Z,5252.00
2018-09-05T08:56:19.734Z,5308.00
2018-09-05T08:57:19.753Z,5264.00
2018-09-05T08:58:19.849Z,5268.00
2018-09-05T08:59:19.952Z,5256.00
2018-09-05T09:00:20.049Z,5264.00
2018-09-05T09:01:20.153Z,5280.00
2018-09-05T09:02:20.257Z,5276.00
2018-09-05T09:03:20.363Z,5236.00
2018-09-05T09:04:20.457Z,5284.00
2018-09-05T09:05:20.562Z,5316.00
2018-09-05T09:06:20.660Z,5272.00
2018-09-05T09:07:20.758Z,5320.00
2018-09-05T09:08:20.864Z,5416.00
2018-09-05T09:09:20.961Z,5440.00
2018-09-05T09:10:21.115Z,5448.00
2018-09-05T09:11:21.179Z,5504.00
2018-09-05T09:12:21.281Z,5540.00
2018-09-05T09:13:21.381Z,5552.00
2018-09-05T09:14:21.480Z,5672.00
2018-09-05T09:15:21.580Z,5536.00
2018-09-05T09:16:21.679Z,5548.00
2018-09-05T09:17:21.778Z,5660.00
2018-09-05T09:18:21.879Z,5716.00
2018-09-05T09:19:21.980Z,5636.00
2018-09-05T09:20:22.084Z,5668.00
2018-09-05T09:21:22.181Z,5572.00
2018-09-05T09:22:22.281Z,5572.00
2018-09-05T09:23:22.383Z,5500.00
2018-09-05T09:24:22.487Z,5396.00
2018-09-05T09:25:22.590Z,5444.00
2018-09-05T09:26:22.691Z,5480.00
2018-09-05T09:27:22.792Z,5508.00
2018-09-05T09:28:22.988Z,5608.00
2018-09-05T09:29:22.996Z,5760.00
2018-09-05T09:30:23.096Z,5900.00
2018-09-05T09:31:23.196Z,6004.00
2018-09-05T09:32:23.336Z,6068.00
2018-09-05T09:33:23.445Z,5944.00
2018-09-05T09:34:23.542Z,6188.00
2018-09-05T09:35:23.657Z,6192.00
2018-09-05T09:36:23.764Z,6068.00
2018-09-05T09:37:23.863Z,6032.00
2018-09-05T09:38:23.963Z,5736.00
2018-09-05T09:39:24.074Z,6080.00
2018-09-05T09:40:24.173Z,6056.00
2018-09-05T09:41:24.274Z,6240.00
2018-09-05T09:42:24.373Z,6288.00
2018-09-05T09:43:24.476Z,6072.00
2018-09-05T09:44:24.578Z,5916.00
2018-09-05T09:45:24.678Z,6040.00
2018-09-05T09:46:24.799Z,6456.00
2018-09-05T09:47:24.880Z,6708.00
2018-09-05T09:48:24.982Z,7020.00
2018-09-05T09:49:25.098Z,7572.00
2018-09-05T09:50:25.188Z,7920.00
2018-09-05T09:51:25.300Z,7964.00
2018-09-05T09:52:25.407Z,7988.00
2018-09-05T09:53:25.513Z,7992.00
2018-09-05T09:54:25.615Z,8024.00
2018-09-05T09:55:25.716Z,8064.00
2018-09-05T09:56:25.820Z,8116.00
2018-09-05T09:57:25.927Z,7972.00
2018-09-05T09:58:26.029Z,7720.00
2018-09-05T09:59:26.153Z,7636.00
2018-09-05T10:00:26.256Z,7760.00
2018-09-05T10:01:26.362Z,7748.00
2018-09-05T10:02:26.463Z,7944.00
2018-09-05T10:03:26.651Z,7656.00
2018-09-05T10:04:26.668Z,7852.00
2018-09-05T10:05:26.774Z,7456.00
2018-09-05T10:06:26.878Z,7160.00
2018-09-05T10:07:26.981Z,6816.00
2018-09-05T10:08:27.072Z,6836.00
2018-09-05T10:09:27.171Z,6664.00
2018-09-05T10:10:27.327Z,6320.00
2018-09-05T10:11:27.375Z,6076.00
2018-09-05T10:12:27.476Z,5816.00
2018-09-05T10:13:27.582Z,5532.00
2018-09-05T10:14:27.668Z,5144.00
2018-09-05T10:15:27.782Z,5036.00
2018-09-05T10:16:27.885Z,4788.00
2018-09-05T10:17:27.994Z,5000.00
2018-09-05T10:18:28.092Z,5672.00
2018-09-05T10:19:28.200Z,6132.00
2018-09-05T10:20:28.298Z,6032.00
2018-09-05T10:21:28.398Z,5440.00
2018-09-05T10:22:28.541Z,5672.00
2018-09-05T10:23:28.602Z,5372.00
2018-09-05T10:24:28.708Z,5080.00
2018-09-05T10:25:28.806Z,5696.00
2018-09-05T10:26:28.913Z,5508.00
2018-09-05T10:27:29.013Z,5524.00
2018-09-05T10:28:29.117Z,5132.00
2018-09-05T10:29:29.219Z,5464.00
2018-09-05T10:30:29.324Z,5436.00
2018-09-05T10:31:29.430Z,5520.00
2018-09-05T10:32:29.539Z,5468.00
2018-09-05T10:33:29.642Z,6060.00
2018-09-05T10:34:29.744Z,6728.00
2018-09-05T10:35:29.856Z,5484.00
2018-09-05T10:36:29.963Z,5464.00
2018-09-05T10:37:30.064Z,5464.00
2018-09-05T10:38:30.166Z,5484.00
2018-09-05T10:39:30.272Z,5508.00
2018-09-05T10:40:30.376Z,5548.00
2018-09-05T10:41:30.481Z,5584.00
2018-09-05T10:42:30.586Z,5524.00
2018-09-05T10:43:30.688Z,5576.00
2018-09-05T10:44:30.791Z,5440.00
2018-09-05T10:45:30.893Z,5552.00
2018-09-05T10:46:30.999Z,5568.00
2018-09-05T10:47:31.098Z,5584.00
2018-09-05T10:48:31.207Z,5624.00
2018-09-05T10:49:31.306Z,5824.00
2018-09-05T10:50:31.409Z,5816.00
2018-09-05T10:51:31.511Z,5680.00
2018-09-05T10:52:31.612Z,5724.00
2018-09-05T10:53:31.716Z,5748.00
2018-09-05T10:54:31.817Z,6060.00
2018-09-05T10:55:31.926Z,5672.00
2018-09-05T10:56:32.023Z,5824.00
2018-09-05T10:57:32.132Z,5812.00
2018-09-05T10:58:32.230Z,5824.00
2018-09-05T10:59:32.340Z,5924.00
2018-09-05T11:00:32.441Z,5924.00
2018-09-05T11:01:32.544Z,5956.00
2018-09-05T11:02:32.651Z,5940.00
2018-09-05T11:03:32.764Z,6252.00
2018-09-05T11:04:32.862Z,6188.00
2018-09-05T11:05:32.965Z,6140.00
2018-09-05T11:06:33.070Z,6304.00
2018-09-05T11:07:33.173Z,6280.00
2018-09-05T11:08:33.277Z,6212.00
2018-09-05T11:09:33.382Z,6272.00
2018-09-05T11:10:33.632Z,6368.00
2018-09-05T11:11:33.589Z,6628.00
2018-09-05T11:12:33.701Z,6784.00
2018-09-05T11:13:33.798Z,6900.00
2018-09-05T11:14:33.903Z,6916.00
2018-09-05T11:15:34.006Z,7108.00
2018-09-05T11:16:34.111Z,6932.00
2018-09-05T11:17:34.212Z,7072.00
2018-09-05T11:18:34.321Z,7204.00
2018-09-05T11:19:34.420Z,7488.00
2018-09-05T11:20:34.524Z,7620.00
2018-09-05T11:21:34.628Z,7352.00
2018-09-05T11:22:34.727Z,7612.00
2018-09-05T11:23:34.828Z,7688.00
2018-09-05T11:24:34.932Z,7692.00
2018-09-05T11:25:35.036Z,7700.00
2018-09-05T11:26:35.139Z,7364.00
2018-09-05T11:27:35.248Z,7656.00
2018-09-05T11:28:35.348Z,7848.00
2018-09-05T11:29:35.441Z,7716.00
2018-09-05T11:30:35.547Z,7452.00
2018-09-05T11:31:35.651Z,5712.00
2018-09-05T11:32:35.760Z,6588.00
2018-09-05T11:33:35.864Z,7264.00
2018-09-05T11:34:35.971Z,7308.00
2018-09-05T11:35:36.075Z,6552.00
2018-09-05T11:36:36.182Z,7112.00
2018-09-05T11:37:36.286Z,7592.00
2018-09-05T11:38:36.394Z,7464.00
2018-09-05T11:39:36.504Z,7496.00
2018-09-05T11:40:36.614Z,7448.00
2018-09-05T11:41:36.721Z,7592.00
2018-09-05T11:42:36.829Z,7420.00
2018-09-05T11:43:36.974Z,7280.00
2018-09-05T11:44:37.076Z,6820.00
2018-09-05T11:45:37.183Z,5804.00
2018-09-05T11:46:37.286Z,5644.00
2018-09-05T11:47:37.393Z,6340.00
2018-09-05T11:48:37.514Z,6432.00
2018-09-05T11:49:37.619Z,6568.00
2018-09-05T11:50:37.727Z,6892.00
2018-09-05T11:51:37.855Z,6920.00
2018-09-05T11:52:37.962Z,6600.00
2018-09-05T11:53:38.068Z,6540.00
2018-09-05T11:54:38.173Z,6596.00
2018-09-05T11:55:38.281Z,6612.00
2018-09-05T11:56:38.385Z,6664.00
2018-09-05T11:57:38.493Z,6780.00
2018-09-05T11:58:38.598Z,6936.00
2018-09-05T11:59:38.708Z,6960.00
2018-09-05T12:00:38.814Z,6816.00
2018-09-05T12:01:38.921Z,6588.00
2018-09-05T12:02:39.029Z,6468.00
2018-09-05T12:03:39.133Z,7060.00
2018-09-05T12:04:39.238Z,6236.00
2018-09-05T12:05:39.345Z,6260.00
2018-09-05T12:06:39.450Z,6196.00
2018-09-05T12:07:39.565Z,6104.00
2018-09-05T12:08:39.667Z,6188.00
2018-09-05T12:09:40.528Z,5952.00
2018-09-05T12:10:39.911Z,5832.00
2018-09-05T12:11:40.054Z,5660.00
2018-09-05T12:12:40.119Z,5800.00
2018-09-05T12:13:40.226Z,5992.00
2018-09-05T12:14:40.329Z,6192.00
2018-09-05T12:15:40.434Z,5836.00
2018-09-05T12:16:40.544Z,5720.00
2018-09-05T12:17:40.650Z,4536.00
2018-09-05T12:18:40.763Z,3544.00
2018-09-05T12:19:40.863Z,3556.00
2018-09-05T12:20:40.968Z,3800.00
2018-09-05T12:21:41.076Z,3792.00
2018-09-05T12:22:41.182Z,3900.00
2018-09-05T12:23:41.291Z,4132.00
2018-09-05T12:24:41.398Z,4568.00
2018-09-05T12:25:41.504Z,6016.00
2018-09-05T12:26:41.615Z,6408.00
2018-09-05T12:27:41.719Z,6128.00
2018-09-05T12:28:41.836Z,6052.00
2018-09-05T12:29:41.945Z,5980.00
2018-09-05T12:30:42.047Z,6120.00
2018-09-05T12:31:42.153Z,6076.00
2018-09-05T12:32:42.257Z,6088.00
2018-09-05T12:33:42.363Z,6116.00
2018-09-05T12:34:42.466Z,6060.00